createdAt,value
2023-02-09T00:00:15.582Z,7.80
2023-02-09T00:01:15.553Z,6.70
2023-02-09T00:02:15.597Z,8.10
2023-02-09T00:03:15.628Z,7.20
2023-02-09T00:04:15.521Z,7.90
2023-02-09T00:05:15.519Z,6.90
2023-02-09T00:06:15.488Z,7.60
2023-02-09T00:07:15.521Z,6.40
2023-02-09T00:08:15.479Z,7.40
2023-02-09T00:09:15.498Z,7.00
2023-02-09T00:10:15.466Z,6.60
2023-02-09T00:11:15.448Z,7.50
2023-02-09T00:12:15.418Z,7.20
2023-02-09T00:13:15.465Z,7.30
2023-02-09T00:14:15.399Z,6.90
2023-02-09T00:15:15.401Z,7.10
2023-02-09T00:16:15.537Z,7.60
2023-02-09T00:17:15.403Z,7.40
2023-02-09T00:18:15.376Z,7.40
2023-02-09T00:19:15.380Z,6.60
2023-02-09T00:20:15.354Z,8.40
2023-02-09T00:21:15.356Z,7.00
2023-02-09T00:22:15.423Z,7.80
2023-02-09T00:23:15.305Z,7.40
2023-02-09T00:24:15.304Z,9.00
2023-02-09T00:25:15.311Z,7.30
2023-02-09T00:26:15.258Z,7.80
2023-02-09T00:27:15.304Z,6.60
2023-02-09T00:28:15.336Z,6.50
2023-02-09T00:29:15.264Z,6.50
2023-02-09T00:30:15.207Z,7.30
2023-02-09T00:31:15.242Z,8.20
2023-02-09T00:32:15.243Z,7.40
2023-02-09T00:33:15.245Z,7.60
2023-02-09T00:34:15.158Z,7.90
2023-02-09T00:35:15.157Z,8.60
2023-02-09T00:36:15.150Z,7.40
2023-02-09T00:37:15.166Z,8.30
2023-02-09T00:38:18.639Z,7.70
2023-02-09T00:39:15.156Z,8.00
2023-02-09T00:40:17.546Z,7.30
2023-02-09T00:41:15.116Z,7.80
2023-02-09T00:42:15.066Z,9.50
2023-02-09T00:43:17.055Z,7.60
2023-02-09T00:44:15.081Z,7.30
2023-02-09T00:45:15.082Z,7.30
2023-02-09T00:46:15.099Z,7.90
2023-02-09T00:47:15.027Z,7.10
2023-02-09T00:48:15.008Z,8.80
2023-02-09T00:49:15.030Z,8.00
2023-02-09T00:50:14.978Z,9.60
2023-02-09T00:51:15.006Z,10.80
2023-02-09T00:52:14.983Z,11.60
2023-02-09T00:53:14.978Z,14.20
2023-02-09T00:54:15.056Z,15.60
2023-02-09T00:55:14.935Z,11.50
2023-02-09T00:56:14.930Z,10.10
2023-02-09T00:57:14.946Z,9.40
2023-02-09T00:58:14.915Z,10.40
2023-02-09T00:59:14.878Z,10.70
2023-02-09T01:00:14.936Z,10.90
2023-02-09T01:01:14.926Z,8.90
2023-02-09T01:02:14.861Z,10.50
2023-02-09T01:03:14.866Z,8.60
2023-02-09T01:04:14.885Z,8.90
2023-02-09T01:05:14.858Z,9.20
2023-02-09T01:06:14.816Z,8.90
2023-02-09T01:07:14.843Z,8.70
2023-02-09T01:08:14.767Z,8.80
2023-02-09T01:09:14.794Z,8.00
2023-02-09T01:10:14.833Z,9.20
2023-02-09T01:11:14.810Z,7.00
2023-02-09T01:12:14.743Z,8.30
2023-02-09T01:13:14.756Z,8.90
2023-02-09T01:14:14.716Z,8.00
2023-02-09T01:15:14.724Z,8.30
2023-02-09T01:16:15.091Z,8.70
2023-02-09T01:17:14.676Z,9.50
2023-02-09T01:18:14.711Z,7.00
2023-02-09T01:19:14.647Z,8.00
2023-02-09T01:20:14.722Z,9.60
2023-02-09T01:21:14.635Z,8.90
2023-02-09T01:22:14.624Z,8.60
2023-02-09T01:23:14.607Z,9.30
2023-02-09T01:24:14.622Z,8.80
2023-02-09T01:25:14.623Z,8.90
2023-02-09T01:26:14.604Z,8.60
2023-02-09T01:27:14.557Z,8.10
2023-02-09T01:28:14.613Z,10.00
2023-02-09T01:29:14.565Z,7.30
2023-02-09T01:30:14.517Z,8.60
2023-02-09T01:31:14.727Z,8.00
2023-02-09T01:32:14.544Z,9.60
2023-02-09T01:33:14.507Z,9.10
2023-02-09T01:34:14.496Z,7.50
2023-02-09T01:35:14.467Z,7.70
2023-02-09T01:36:14.474Z,8.10
2023-02-09T01:37:14.520Z,8.40
2023-02-09T01:38:14.431Z,7.20
2023-02-09T01:39:14.429Z,8.60
2023-02-09T01:40:14.421Z,8.90
2023-02-09T01:41:14.403Z,7.70
2023-02-09T01:42:14.381Z,8.20
2023-02-09T01:43:14.528Z,13.00
2023-02-09T01:44:14.380Z,16.80
2023-02-09T01:45:14.371Z,13.10
2023-02-09T01:46:14.378Z,11.10
2023-02-09T01:47:14.351Z,9.40
2023-02-09T01:48:14.348Z,9.50
2023-02-09T01:49:14.353Z,8.20
2023-02-09T01:50:14.337Z,10.30
2023-02-09T01:51:14.293Z,7.90
2023-02-09T01:52:14.309Z,8.60
2023-02-09T01:53:21.294Z,8.70
2023-02-09T01:54:14.257Z,8.80
2023-02-09T01:55:14.275Z,8.80
2023-02-09T01:56:14.255Z,9.90
2023-02-09T01:57:14.234Z,9.00
2023-02-09T01:58:14.221Z,8.60
2023-02-09T01:59:14.179Z,8.90
2023-02-09T02:00:14.238Z,8.60
2023-02-09T02:01:14.205Z,10.30
2023-02-09T02:02:14.213Z,8.10
2023-02-09T02:03:14.153Z,8.40
2023-02-09T02:04:14.172Z,8.10
2023-02-09T02:05:14.153Z,8.00
2023-02-09T02:06:14.172Z,8.80
2023-02-09T02:07:14.112Z,8.30
2023-02-09T02:08:14.136Z,7.70
2023-02-09T02:09:14.098Z,9.10
2023-02-09T02:10:14.151Z,9.20
2023-02-09T02:11:14.069Z,7.70
2023-02-09T02:12:14.066Z,7.80
2023-02-09T02:13:14.048Z,8.90
2023-02-09T02:14:14.062Z,8.40
2023-02-09T02:15:14.031Z,9.20
2023-02-09T02:16:14.084Z,7.90
2023-02-09T02:17:14.020Z,7.90
2023-02-09T02:18:14.023Z,8.50
2023-02-09T02:19:13.957Z,8.40
2023-02-09T02:20:13.982Z,9.00
2023-02-09T02:21:13.964Z,8.30
2023-02-09T02:22:13.927Z,8.00
2023-02-09T02:23:13.907Z,8.40
2023-02-09T02:24:13.905Z,10.30
2023-02-09T02:25:13.939Z,8.50
2023-02-09T02:26:13.906Z,9.90
2023-02-09T02:27:13.859Z,10.10
2023-02-09T02:28:13.903Z,9.30
2023-02-09T02:29:13.856Z,9.20
2023-02-09T02:30:13.834Z,7.50
2023-02-09T02:31:13.917Z,8.60
2023-02-09T02:32:13.816Z,8.30
2023-02-09T02:33:13.796Z,8.40
2023-02-09T02:34:13.790Z,9.20
2023-02-09T02:35:13.874Z,9.60
2023-02-09T02:36:13.765Z,8.50
2023-02-09T02:37:13.744Z,7.70
2023-02-09T02:38:13.745Z,7.80
2023-02-09T02:39:13.748Z,9.00
2023-02-09T02:40:13.719Z,9.70
2023-02-09T02:41:13.923Z,7.90
2023-02-09T02:42:13.711Z,8.00
2023-02-09T02:43:13.678Z,8.90
2023-02-09T02:44:13.701Z,8.60
2023-02-09T02:45:13.658Z,9.90
2023-02-09T02:46:13.752Z,9.30
2023-02-09T02:47:13.668Z,7.90
2023-02-09T02:48:13.655Z,8.20
2023-02-09T02:49:15.183Z,9.00
2023-02-09T02:50:13.642Z,8.50
2023-02-09T02:51:13.607Z,8.30
2023-02-09T02:52:13.601Z,8.10
2023-02-09T02:53:13.563Z,8.30
2023-02-09T02:54:13.564Z,7.80
2023-02-09T02:55:13.585Z,9.70
2023-02-09T02:56:14.362Z,8.70
2023-02-09T02:57:13.516Z,9.30
2023-02-09T02:58:13.518Z,9.30
2023-02-09T02:59:13.526Z,9.10
2023-02-09T03:00:13.503Z,8.70
2023-02-09T03:01:13.543Z,8.80
2023-02-09T03:02:13.557Z,10.10
2023-02-09T03:03:13.455Z,9.00
2023-02-09T03:04:13.454Z,10.20
2023-02-09T03:05:13.460Z,8.60
2023-02-09T03:06:13.449Z,9.10
2023-02-09T03:07:13.438Z,8.40
2023-02-09T03:08:13.454Z,9.30
2023-02-09T03:09:13.381Z,9.00
2023-02-09T03:10:15.068Z,8.70
2023-02-09T03:11:13.366Z,8.50
2023-02-09T03:12:13.378Z,7.60
2023-02-09T03:13:13.341Z,9.70
2023-02-09T03:14:13.362Z,9.30
2023-02-09T03:15:13.387Z,9.30
2023-02-09T03:16:13.380Z,9.10
2023-02-09T03:17:13.304Z,9.10
2023-02-09T03:18:13.318Z,9.60
2023-02-09T03:19:13.304Z,7.90
2023-02-09T03:20:13.344Z,8.40
2023-02-09T03:21:13.283Z,9.60
2023-02-09T03:22:13.284Z,9.10
2023-02-09T03:23:13.257Z,9.20
2023-02-09T03:24:13.289Z,11.20
2023-02-09T03:25:13.198Z,9.60
2023-02-09T03:26:13.228Z,9.10
2023-02-09T03:27:13.201Z,9.10
2023-02-09T03:28:13.252Z,8.90
2023-02-09T03:29:13.185Z,9.60
2023-02-09T03:30:13.178Z,10.20
2023-02-09T03:31:13.245Z,9.10
2023-02-09T03:32:14.859Z,9.80
2023-02-09T03:33:13.137Z,8.30
2023-02-09T03:34:13.115Z,8.10
2023-02-09T03:35:13.108Z,8.80
2023-02-09T03:36:13.086Z,8.40
2023-02-09T03:37:13.085Z,8.50
2023-02-09T03:38:13.117Z,9.50
2023-02-09T03:39:13.066Z,10.30
2023-02-09T03:40:13.067Z,9.00
2023-02-09T03:41:13.109Z,8.20
2023-02-09T03:42:13.024Z,9.00
2023-02-09T03:43:13.015Z,8.90
2023-02-09T03:44:12.991Z,9.00
2023-02-09T03:45:12.994Z,8.10
2023-02-09T03:46:13.034Z,10.20
2023-02-09T03:47:12.950Z,10.00
2023-02-09T03:48:12.950Z,8.40
2023-02-09T03:49:12.940Z,8.50
2023-02-09T03:50:12.941Z,8.40
2023-02-09T03:51:12.997Z,8.80
2023-02-09T03:52:12.918Z,9.00
2023-02-09T03:53:12.935Z,8.80
2023-02-09T03:54:12.896Z,9.70
2023-02-09T03:55:12.873Z,8.90
2023-02-09T03:56:12.877Z,9.40
2023-02-09T03:57:12.867Z,9.10
2023-02-09T03:58:12.847Z,8.90
2023-02-09T03:59:12.845Z,9.60
2023-02-09T04:00:12.853Z,8.00
2023-02-09T04:01:12.838Z,9.50
2023-02-09T04:02:12.990Z,8.50
2023-02-09T04:03:14.512Z,7.90
2023-02-09T04:04:12.776Z,9.90
2023-02-09T04:05:12.779Z,9.30
2023-02-09T04:06:12.725Z,9.20
2023-02-09T04:07:12.918Z,9.70
2023-02-09T04:08:12.707Z,9.60
2023-02-09T04:09:12.707Z,8.30
2023-02-09T04:10:12.710Z,10.80
2023-02-09T04:11:12.713Z,8.20
2023-02-09T04:12:12.715Z,8.80
2023-02-09T04:13:12.690Z,8.50
2023-02-09T04:14:12.629Z,8.40
2023-02-09T04:15:12.684Z,8.80
2023-02-09T04:16:12.735Z,8.80
2023-02-09T04:17:12.672Z,9.10
2023-02-09T04:18:12.601Z,9.80
2023-02-09T04:19:12.603Z,9.80
2023-02-09T04:20:12.565Z,9.90
2023-02-09T04:21:12.596Z,9.70
2023-02-09T04:22:12.569Z,9.20
2023-02-09T04:23:12.588Z,9.80
2023-02-09T04:24:12.549Z,10.30
2023-02-09T04:25:12.539Z,10.20
2023-02-09T04:26:12.505Z,9.90
2023-02-09T04:27:12.529Z,10.00
2023-02-09T04:28:12.522Z,9.50
2023-02-09T04:29:12.589Z,9.80
2023-02-09T04:30:12.476Z,9.30
2023-02-09T04:31:12.603Z,9.30
2023-02-09T04:32:12.514Z,9.90
2023-02-09T04:33:12.456Z,9.50
2023-02-09T04:34:12.432Z,10.40
2023-02-09T04:35:12.468Z,10.30
2023-02-09T04:36:12.445Z,10.80
2023-02-09T04:37:12.405Z,8.50
2023-02-09T04:38:12.392Z,9.70
2023-02-09T04:39:12.387Z,8.50
2023-02-09T04:40:12.388Z,10.40
2023-02-09T04:41:12.365Z,10.00
2023-02-09T04:42:12.340Z,10.30
2023-02-09T04:43:12.352Z,10.20
2023-02-09T04:44:12.356Z,10.00
2023-02-09T04:45:12.293Z,10.00
2023-02-09T04:46:12.366Z,10.50
2023-02-09T04:47:12.300Z,9.60
2023-02-09T04:48:12.288Z,10.80
2023-02-09T04:49:12.297Z,10.40
2023-02-09T04:50:13.955Z,9.40
2023-02-09T04:51:12.231Z,11.50
2023-02-09T04:52:12.228Z,9.20
2023-02-09T04:53:12.237Z,10.50
2023-02-09T04:54:12.220Z,10.50
2023-02-09T04:55:12.186Z,10.70
2023-02-09T04:56:13.748Z,10.50
2023-02-09T04:57:12.172Z,10.40
2023-02-09T04:58:12.140Z,11.80
2023-02-09T04:59:12.174Z,9.90
2023-02-09T05:00:12.141Z,12.00
2023-02-09T05:01:12.188Z,9.20
2023-02-09T05:02:12.156Z,9.60
2023-02-09T05:03:12.137Z,10.20
2023-02-09T05:04:12.087Z,9.20
2023-02-09T05:05:12.093Z,10.60
2023-02-09T05:06:12.073Z,11.90
2023-02-09T05:07:12.045Z,10.50
2023-02-09T05:08:12.071Z,10.10
2023-02-09T05:09:12.067Z,10.40
2023-02-09T05:10:12.008Z,10.00
2023-02-09T05:11:12.029Z,10.80
2023-02-09T05:12:12.004Z,10.70
2023-02-09T05:13:12.003Z,9.90
2023-02-09T05:14:11.989Z,9.70
2023-02-09T05:15:11.966Z,11.50
2023-02-09T05:16:12.005Z,9.80
2023-02-09T05:17:11.930Z,10.10
2023-02-09T05:18:11.916Z,11.40
2023-02-09T05:19:11.968Z,10.20
2023-02-09T05:20:11.904Z,12.50
2023-02-09T05:21:11.915Z,10.80
2023-02-09T05:22:11.877Z,10.90
2023-02-09T05:23:11.880Z,9.80
2023-02-09T05:24:11.872Z,10.20
2023-02-09T05:25:11.866Z,10.90
2023-02-09T05:26:11.855Z,11.30
2023-02-09T05:27:11.848Z,9.50
2023-02-09T05:28:12.042Z,10.40
2023-02-09T05:29:11.819Z,10.20
2023-02-09T05:30:11.819Z,11.90
2023-02-09T05:31:11.841Z,11.30
2023-02-09T05:32:11.855Z,10.90
2023-02-09T05:33:11.777Z,10.70
2023-02-09T05:34:11.776Z,11.70
2023-02-09T05:35:11.748Z,10.00
2023-02-09T05:36:11.737Z,12.30
2023-02-09T05:37:11.707Z,11.10
2023-02-09T05:38:11.705Z,10.00
2023-02-09T05:39:11.691Z,11.30
2023-02-09T05:40:12.938Z,11.30
2023-02-09T05:41:11.653Z,11.10
2023-02-09T05:42:11.632Z,11.60
2023-02-09T05:43:11.665Z,10.30
2023-02-09T05:44:11.641Z,10.70
2023-02-09T05:45:11.633Z,9.70
2023-02-09T05:46:11.653Z,11.20
2023-02-09T05:47:11.593Z,12.20
2023-02-09T05:48:11.575Z,10.30
2023-02-09T05:49:11.628Z,10.70
2023-02-09T05:50:11.578Z,10.50
2023-02-09T05:51:11.551Z,11.70
2023-02-09T05:52:11.547Z,9.60
2023-02-09T05:53:12.885Z,11.40
2023-02-09T05:54:11.546Z,12.00
2023-02-09T05:55:11.557Z,11.30
2023-02-09T05:56:11.496Z,11.90
2023-02-09T05:57:11.472Z,10.00
2023-02-09T05:58:11.492Z,10.60
2023-02-09T05:59:11.458Z,10.20
2023-02-09T06:00:11.475Z,10.90
2023-02-09T06:01:11.465Z,10.80
2023-02-09T06:02:11.453Z,12.60
2023-02-09T06:03:11.464Z,11.90
2023-02-09T06:04:11.379Z,11.00
2023-02-09T06:05:11.475Z,11.10
2023-02-09T06:06:11.383Z,11.20
2023-02-09T06:07:12.121Z,12.80
2023-02-09T06:08:11.364Z,10.50
2023-02-09T06:09:11.457Z,10.10
2023-02-09T06:10:11.335Z,11.50
2023-02-09T06:11:11.369Z,11.80
2023-02-09T06:12:11.287Z,11.60
2023-02-09T06:13:11.292Z,11.50
2023-02-09T06:14:11.257Z,10.40
2023-02-09T06:15:11.298Z,10.90
2023-02-09T06:16:11.262Z,10.20
2023-02-09T06:17:11.266Z,11.50
2023-02-09T06:18:11.227Z,10.30
2023-02-09T06:19:11.208Z,11.50
2023-02-09T06:20:11.202Z,12.40
2023-02-09T06:21:11.216Z,10.80
2023-02-09T06:22:11.204Z,11.00
2023-02-09T06:23:11.225Z,11.10
2023-02-09T06:24:11.166Z,12.30
2023-02-09T06:25:11.181Z,11.60
2023-02-09T06:26:11.143Z,10.60
2023-02-09T06:27:11.147Z,13.10
2023-02-09T06:28:11.202Z,12.20
2023-02-09T06:29:11.132Z,10.50
2023-02-09T06:30:11.079Z,11.90
2023-02-09T06:31:11.248Z,13.20
2023-02-09T06:32:11.181Z,10.50
2023-02-09T06:33:11.076Z,10.30
2023-02-09T06:34:11.039Z,11.00
2023-02-09T06:35:11.037Z,12.10
2023-02-09T06:36:11.032Z,10.80
2023-02-09T06:37:11.107Z,11.00
2023-02-09T06:38:11.018Z,11.50
2023-02-09T06:39:11.014Z,10.70
2023-02-09T06:40:10.989Z,12.30
2023-02-09T06:41:10.961Z,10.70
2023-02-09T06:42:10.943Z,11.00
2023-02-09T06:43:11.009Z,12.00
2023-02-09T06:44:25.634Z,11.10
2023-02-09T06:45:10.948Z,11.80
2023-02-09T06:46:10.942Z,15.00
2023-02-09T06:47:10.929Z,14.80
2023-02-09T06:48:10.908Z,12.70
2023-02-09T06:49:10.892Z,13.20
2023-02-09T06:50:10.871Z,12.50
2023-02-09T06:51:10.847Z,11.00
2023-02-09T06:52:10.857Z,11.60
2023-02-09T06:53:10.825Z,12.70
2023-02-09T06:54:10.909Z,12.60
2023-02-09T06:55:10.830Z,11.20
2023-02-09T06:56:10.786Z,13.20
2023-02-09T06:57:10.783Z,12.40
2023-02-09T06:58:10.757Z,11.40
2023-02-09T06:59:10.800Z,11.30
2023-02-09T07:00:10.783Z,11.50
2023-02-09T07:01:10.832Z,11.20
2023-02-09T07:02:10.713Z,13.40
2023-02-09T07:03:10.748Z,13.60
2023-02-09T07:04:10.720Z,11.10
2023-02-09T07:05:10.724Z,10.10
2023-02-09T07:06:10.700Z,10.80
2023-02-09T07:07:10.734Z,12.30
2023-02-09T07:08:10.672Z,12.60
2023-02-09T07:09:10.714Z,12.00
2023-02-09T07:10:10.637Z,12.60
2023-02-09T07:11:10.678Z,12.60
2023-02-09T07:12:10.650Z,10.50
2023-02-09T07:13:10.626Z,14.90
2023-02-09T07:14:10.683Z,13.60
2023-02-09T07:15:10.604Z,11.50
2023-02-09T07:16:10.706Z,11.80
2023-02-09T07:17:10.582Z,11.50
2023-02-09T07:18:10.584Z,10.90
2023-02-09T07:19:10.569Z,10.60
2023-02-09T07:20:10.533Z,10.80
2023-02-09T07:21:10.532Z,11.20
2023-02-09T07:22:10.488Z,12.40
2023-02-09T07:23:10.512Z,10.30
2023-02-09T07:24:10.535Z,11.80
2023-02-09T07:25:10.494Z,11.00
2023-02-09T07:26:10.436Z,12.00
2023-02-09T07:27:10.486Z,11.60
2023-02-09T07:28:10.462Z,12.60
2023-02-09T07:29:12.793Z,11.20
2023-02-09T07:30:10.452Z,12.10
2023-02-09T07:31:10.540Z,10.90
2023-02-09T07:32:10.489Z,12.70
2023-02-09T07:33:10.376Z,13.60
2023-02-09T07:34:10.400Z,12.40
2023-02-09T07:35:10.398Z,12.20
2023-02-09T07:36:10.366Z,12.80
2023-02-09T07:37:10.367Z,22.60
2023-02-09T07:38:10.325Z,14.50
2023-02-09T07:39:10.365Z,13.50
2023-02-09T07:40:10.282Z,12.80
2023-02-09T07:41:10.275Z,12.40
2023-02-09T07:42:10.291Z,12.10
2023-02-09T07:43:10.256Z,12.70
2023-02-09T07:44:10.255Z,11.30
2023-02-09T07:45:10.264Z,12.10
2023-02-09T07:46:10.329Z,11.70
2023-02-09T07:47:10.216Z,12.60
2023-02-09T07:48:10.203Z,11.40
2023-02-09T07:49:10.234Z,11.30
2023-02-09T07:50:10.165Z,11.30
2023-02-09T07:51:10.158Z,11.90
2023-02-09T07:52:10.167Z,12.20
2023-02-09T07:53:10.169Z,11.60
2023-02-09T07:54:10.135Z,11.80
2023-02-09T07:55:10.116Z,14.40
2023-02-09T07:56:10.094Z,11.50
2023-02-09T07:57:10.088Z,12.40
2023-02-09T07:58:17.130Z,18.60
2023-02-09T07:59:10.093Z,13.40
2023-02-09T08:00:10.114Z,12.60
2023-02-09T08:01:10.127Z,13.50
2023-02-09T08:02:10.173Z,12.80
2023-02-09T08:03:10.015Z,11.40
2023-02-09T08:04:10.019Z,11.60
2023-02-09T08:05:10.065Z,12.10
2023-02-09T08:06:10.006Z,11.90
2023-02-09T08:07:10.004Z,11.50
2023-02-09T08:08:09.965Z,12.10
2023-02-09T08:09:09.992Z,11.90
2023-02-09T08:10:09.979Z,12.20
2023-02-09T08:11:09.956Z,12.60
2023-02-09T08:12:09.986Z,12.30
2023-02-09T08:13:09.923Z,12.90
2023-02-09T08:14:09.896Z,12.20
2023-02-09T08:15:09.870Z,12.70
2023-02-09T08:16:10.016Z,11.70
2023-02-09T08:17:09.846Z,12.60
2023-02-09T08:18:11.769Z,12.40
2023-02-09T08:19:09.828Z,13.90
2023-02-09T08:20:09.856Z,12.40
2023-02-09T08:21:09.847Z,12.70
2023-02-09T08:22:09.833Z,11.20
2023-02-09T08:23:09.786Z,14.30
2023-02-09T08:24:09.778Z,12.60
2023-02-09T08:25:09.788Z,11.80
2023-02-09T08:26:09.839Z,12.40
2023-02-09T08:27:09.755Z,12.00
2023-02-09T08:28:09.798Z,12.20
2023-02-09T08:29:09.712Z,11.90
2023-02-09T08:30:09.779Z,11.70
2023-02-09T08:31:09.766Z,11.70
2023-02-09T08:32:09.756Z,11.50
2023-02-09T08:33:09.711Z,12.30
2023-02-09T08:34:09.676Z,12.40
2023-02-09T08:35:09.683Z,12.70
2023-02-09T08:36:09.660Z,11.20
2023-02-09T08:37:09.646Z,11.80
2023-02-09T08:38:09.658Z,11.50
2023-02-09T08:39:09.602Z,13.00
2023-02-09T08:40:09.628Z,12.00
2023-02-09T08:41:09.596Z,11.00
2023-02-09T08:42:09.607Z,12.30
2023-02-09T08:43:09.612Z,12.90
2023-02-09T08:44:09.604Z,11.60
2023-02-09T08:45:09.534Z,13.60
2023-02-09T08:46:09.650Z,11.10
2023-02-09T08:47:09.537Z,11.30
2023-02-09T08:48:09.529Z,14.30
2023-02-09T08:49:09.512Z,11.20
2023-02-09T08:50:09.490Z,12.70
2023-02-09T08:51:09.492Z,11.90
2023-02-09T08:52:09.475Z,12.70
2023-02-09T08:53:09.487Z,12.20
2023-02-09T08:54:09.469Z,12.00
2023-02-09T08:55:09.523Z,11.10
2023-02-09T08:56:09.417Z,11.80
2023-02-09T08:57:09.420Z,12.10
2023-02-09T08:58:09.431Z,12.20
2023-02-09T08:59:09.391Z,22.00
2023-02-09T09:00:09.384Z,11.50
2023-02-09T09:01:09.412Z,12.80
2023-02-09T09:02:09.347Z,11.70
2023-02-09T09:03:09.378Z,10.90
2023-02-09T09:04:09.479Z,14.20
2023-02-09T09:05:09.333Z,46.80
2023-02-09T09:06:09.348Z,82.00
2023-02-09T09:07:09.303Z,26.60
2023-02-09T09:08:09.897Z,19.80
2023-02-09T09:09:09.288Z,15.20
2023-02-09T09:10:09.346Z,11.00
2023-02-09T09:11:09.234Z,14.80
2023-02-09T09:12:09.228Z,11.90
2023-02-09T09:13:09.235Z,13.20
2023-02-09T09:14:09.244Z,11.30
2023-02-09T09:15:09.208Z,11.20
2023-02-09T09:16:09.259Z,11.40
2023-02-09T09:17:09.196Z,11.20
2023-02-09T09:18:09.171Z,12.80
2023-02-09T09:19:09.165Z,12.00
2023-02-09T09:20:09.159Z,11.10
2023-02-09T09:21:11.312Z,10.70
2023-02-09T09:22:09.121Z,12.10
2023-02-09T09:23:09.119Z,10.70
2023-02-09T09:24:09.090Z,10.50
2023-02-09T09:25:09.101Z,10.60
2023-02-09T09:26:09.114Z,15.10
2023-02-09T09:27:09.068Z,12.10
2023-02-09T09:28:09.143Z,12.40
2023-02-09T09:29:09.027Z,10.20
2023-02-09T09:30:09.047Z,11.00
2023-02-09T09:31:09.081Z,11.90
2023-02-09T09:32:09.145Z,12.10
2023-02-09T09:33:09.089Z,10.90
2023-02-09T09:34:09.036Z,12.00
2023-02-09T09:35:08.953Z,11.20
2023-02-09T09:36:08.988Z,12.10
2023-02-09T09:37:09.104Z,11.70
2023-02-09T09:38:08.948Z,15.20
2023-02-09T09:39:08.913Z,12.10
2023-02-09T09:40:08.940Z,11.00
2023-02-09T09:41:08.894Z,10.70
2023-02-09T09:42:08.911Z,11.60
2023-02-09T09:43:08.898Z,11.90
2023-02-09T09:44:08.897Z,10.50
2023-02-09T09:45:08.855Z,10.10
2023-02-09T09:46:08.866Z,11.50
2023-02-09T09:47:08.864Z,10.30
2023-02-09T09:48:08.870Z,10.90
2023-02-09T09:49:08.793Z,10.60
2023-02-09T09:50:08.820Z,10.60
2023-02-09T09:51:08.785Z,11.60
2023-02-09T09:52:08.813Z,9.90
2023-02-09T09:53:08.784Z,12.80
2023-02-09T09:54:08.802Z,13.60
2023-02-09T09:55:08.752Z,9.70
2023-02-09T09:56:08.754Z,10.90
2023-02-09T09:57:08.714Z,10.70
2023-02-09T09:58:08.746Z,11.20
2023-02-09T09:59:08.710Z,11.00
2023-02-09T10:00:08.822Z,11.00
2023-02-09T10:01:08.688Z,10.00
2023-02-09T10:02:08.683Z,13.40
2023-02-09T10:03:08.653Z,11.50
2023-02-09T10:04:08.637Z,10.00
2023-02-09T10:05:08.609Z,10.50
2023-02-09T10:06:08.600Z,10.40
2023-02-09T10:07:08.576Z,10.20
2023-02-09T10:08:08.605Z,10.90
2023-02-09T10:09:08.557Z,10.60
2023-02-09T10:10:08.601Z,10.10
2023-02-09T10:11:08.536Z,10.40
2023-02-09T10:12:08.536Z,11.50
2023-02-09T10:13:08.514Z,9.60
2023-02-09T10:14:08.625Z,13.30
2023-02-09T10:15:08.488Z,10.50
2023-02-09T10:16:08.520Z,9.90
2023-02-09T10:17:08.542Z,9.20
2023-02-09T10:18:08.466Z,11.00
2023-02-09T10:19:08.445Z,10.60
2023-02-09T10:20:08.562Z,9.40
2023-02-09T10:21:08.493Z,9.50
2023-02-09T10:22:08.458Z,9.80
2023-02-09T10:23:08.395Z,10.70
2023-02-09T10:24:08.616Z,11.60
2023-02-09T10:25:08.369Z,9.90
2023-02-09T10:26:08.433Z,11.00
2023-02-09T10:27:08.383Z,9.90
2023-02-09T10:28:08.406Z,10.80
2023-02-09T10:29:08.326Z,11.40
2023-02-09T10:30:08.358Z,9.60
2023-02-09T10:31:08.398Z,8.40
2023-02-09T10:32:08.315Z,11.20
2023-02-09T10:33:08.275Z,10.10
2023-02-09T10:34:08.311Z,11.10
2023-02-09T10:35:08.312Z,9.50
2023-02-09T10:36:08.269Z,11.10
2023-02-09T10:37:08.252Z,12.50
2023-02-09T10:38:08.259Z,10.30
2023-02-09T10:39:08.203Z,10.90
2023-02-09T10:40:08.374Z,10.20
2023-02-09T10:41:08.195Z,10.70
2023-02-09T10:42:08.184Z,11.60
2023-02-09T10:43:08.194Z,11.00
2023-02-09T10:44:08.191Z,10.40
2023-02-09T10:45:08.148Z,10.40
2023-02-09T10:46:08.274Z,11.20
2023-02-09T10:47:08.133Z,10.80
2023-02-09T10:48:08.136Z,9.70
2023-02-09T10:49:08.085Z,10.60
2023-02-09T10:50:08.084Z,11.60
2023-02-09T10:51:08.097Z,11.10
2023-02-09T10:52:08.090Z,10.20
2023-02-09T10:53:08.044Z,13.70
2023-02-09T10:54:08.050Z,18.40
2023-02-09T10:55:08.045Z,11.00
2023-02-09T10:56:08.051Z,12.30
2023-02-09T10:57:08.021Z,10.90
2023-02-09T10:58:07.997Z,9.80
2023-02-09T10:59:07.993Z,9.90
2023-02-09T11:00:07.966Z,10.50
2023-02-09T11:01:08.047Z,9.30
2023-02-09T11:02:07.974Z,9.20
2023-02-09T11:03:07.928Z,10.20
2023-02-09T11:04:08.011Z,10.10
2023-02-09T11:05:07.928Z,11.40
2023-02-09T11:06:07.956Z,9.10
2023-02-09T11:07:07.926Z,9.30
2023-02-09T11:08:07.881Z,10.20
2023-02-09T11:09:07.881Z,10.60
2023-02-09T11:10:12.592Z,10.30
2023-02-09T11:11:07.857Z,9.70
2023-02-09T11:12:07.870Z,9.10
2023-02-09T11:13:07.880Z,10.00
2023-02-09T11:14:07.814Z,9.50
2023-02-09T11:15:07.804Z,9.40
2023-02-09T11:16:07.833Z,9.10
2023-02-09T11:17:07.767Z,9.00
2023-02-09T11:18:07.858Z,10.90
2023-02-09T11:19:08.279Z,9.70
2023-02-09T11:20:07.776Z,11.80
2023-02-09T11:21:07.744Z,11.30
2023-02-09T11:22:07.747Z,9.80
2023-02-09T11:23:07.743Z,9.40
2023-02-09T11:24:07.715Z,9.40
2023-02-09T11:25:07.674Z,9.80
2023-02-09T11:26:07.676Z,10.40
2023-02-09T11:27:07.651Z,10.60
2023-02-09T11:28:07.765Z,8.80
2023-02-09T11:29:07.672Z,10.40
2023-02-09T11:30:07.654Z,10.30
2023-02-09T11:31:07.708Z,21.50
2023-02-09T11:32:07.608Z,24.00
2023-02-09T11:33:07.622Z,28.80
2023-02-09T11:34:07.655Z,20.20
2023-02-09T11:35:07.599Z,12.80
2023-02-09T11:36:07.557Z,10.00
2023-02-09T11:37:07.566Z,11.40
2023-02-09T11:38:07.613Z,9.70
2023-02-09T11:39:07.545Z,11.50
2023-02-09T11:40:07.518Z,10.60
2023-02-09T11:41:07.509Z,9.00
2023-02-09T11:42:07.527Z,11.80
2023-02-09T11:43:07.491Z,9.20
2023-02-09T11:44:07.783Z,9.40
2023-02-09T11:45:08.972Z,9.60
2023-02-09T11:46:07.499Z,9.70
2023-02-09T11:47:07.457Z,10.00
2023-02-09T11:48:07.491Z,10.60
2023-02-09T11:49:07.465Z,12.30
2023-02-09T11:50:07.427Z,10.00
2023-02-09T11:51:07.398Z,21.80
2023-02-09T11:52:07.405Z,15.00
2023-02-09T11:53:07.378Z,10.20
2023-02-09T11:54:07.437Z,17.80
2023-02-09T11:55:07.348Z,13.20
2023-02-09T11:56:07.375Z,12.10
2023-02-09T11:57:07.358Z,12.10
2023-02-09T11:58:07.334Z,11.30
2023-02-09T11:59:07.349Z,11.90
2023-02-09T12:00:07.312Z,10.60
2023-02-09T12:01:15.551Z,9.70
2023-02-09T12:02:08.261Z,9.90
2023-02-09T12:03:07.297Z,9.60
2023-02-09T12:04:07.262Z,10.90
2023-02-09T12:05:07.239Z,10.00
2023-02-09T12:06:07.242Z,9.90
2023-02-09T12:07:07.220Z,9.30
2023-02-09T12:08:07.185Z,9.90
2023-02-09T12:09:07.225Z,10.70
2023-02-09T12:10:07.202Z,10.00
2023-02-09T12:11:07.205Z,9.60
2023-02-09T12:12:07.142Z,27.90
2023-02-09T12:13:07.342Z,10.60
2023-02-09T12:14:07.114Z,11.30
2023-02-09T12:15:07.163Z,11.40
2023-02-09T12:16:07.153Z,9.90
2023-02-09T12:17:07.100Z,10.10
2023-02-09T12:18:07.078Z,9.60
2023-02-09T12:19:07.082Z,10.00
2023-02-09T12:20:07.069Z,10.30
2023-02-09T12:21:07.083Z,10.60
2023-02-09T12:22:07.037Z,15.60
2023-02-09T12:23:07.016Z,59.70
2023-02-09T12:24:06.991Z,53.90
2023-02-09T12:25:07.010Z,18.70
2023-02-09T12:26:07.004Z,13.20
2023-02-09T12:27:07.017Z,9.40
2023-02-09T12:28:06.995Z,14.40
2023-02-09T12:29:06.962Z,9.90
2023-02-09T12:30:06.942Z,10.50
2023-02-09T12:31:07.103Z,10.20
2023-02-09T12:32:06.990Z,10.80
2023-02-09T12:33:06.916Z,9.00
2023-02-09T12:34:06.865Z,10.20
2023-02-09T12:35:06.864Z,10.70
2023-02-09T12:36:06.856Z,10.50
2023-02-09T12:37:06.904Z,10.00
2023-02-09T12:38:06.842Z,11.60
2023-02-09T12:39:06.868Z,10.30
2023-02-09T12:40:06.882Z,11.10
2023-02-09T12:41:06.808Z,10.40
2023-02-09T12:42:06.821Z,10.50
2023-02-09T12:43:06.768Z,9.70
2023-02-09T12:44:06.783Z,11.40
2023-02-09T12:45:06.748Z,9.70
2023-02-09T12:46:08.394Z,10.20
2023-02-09T12:47:06.765Z,10.60
2023-02-09T12:48:06.734Z,9.90
2023-02-09T12:49:06.740Z,9.20
2023-02-09T12:50:06.682Z,9.60
2023-02-09T12:51:06.704Z,9.80
2023-02-09T12:52:08.667Z,10.00
2023-02-09T12:53:06.647Z,9.20
2023-02-09T12:54:06.627Z,10.80
2023-02-09T12:55:06.629Z,10.80
2023-02-09T12:56:06.690Z,8.50
2023-02-09T12:57:06.635Z,9.20
2023-02-09T12:58:06.629Z,9.10
2023-02-09T12:59:06.589Z,10.50
2023-02-09T13:00:06.560Z,12.10
2023-02-09T13:01:06.641Z,10.00
2023-02-09T13:02:06.609Z,9.40
2023-02-09T13:03:08.009Z,9.40